sensor_id;sensor_type;location;lat;lon;timestamp;P1;durP1;ratioP1;P2;durP2;ratioP2
3337;SDS011;1682;49.286;10.788;2023-07-30T00:01:23;2.43;;;2.20;;
3337;SDS011;1682;49.286;10.788;2023-07-30T00:04:11;2.57;;;2.37;;
3337;SDS011;1682;49.286;10.788;2023-07-30T00:06:58;2.50;;;2.37;;
3337;SDS011;1682;49.286;10.788;2023-07-30T00:09:46;2.77;;;2.57;;
3337;SDS011;1682;49.286;10.788;2023-07-30T00:12:36;2.80;;;2.60;;
3337;SDS011;1682;49.286;10.788;2023-07-30T00:15:23;3.37;;;3.17;;
3337;SDS011;1682;49.286;10.788;2023-07-30T00:18:11;5.43;;;3.00;;
3337;SDS011;1682;49.286;10.788;2023-07-30T00:20:58;3.65;;;3.30;;
3337;SDS011;1682;49.286;10.788;2023-07-30T00:23:45;2.60;;;2.40;;
3337;SDS011;1682;49.286;10.788;2023-07-30T00:26:33;2.90;;;2.70;;
3337;SDS011;1682;49.286;10.788;2023-07-30T00:29:22;3.03;;;2.80;;
3337;SDS011;1682;49.286;10.788;2023-07-30T00:32:09;6.63;;;3.10;;
3337;SDS011;1682;49.286;10.788;2023-07-30T00:35:01;2.90;;;2.70;;
3337;SDS011;1682;49.286;10.788;2023-07-30T00:37:49;3.83;;;3.00;;
3337;SDS011;1682;49.286;10.788;2023-07-30T00:40:39;3.37;;;3.17;;
3337;SDS011;1682;49.286;10.788;2023-07-30T00:43:26;3.47;;;3.10;;
3337;SDS011;1682;49.286;10.788;2023-07-30T00:46:15;3.53;;;3.23;;
3337;SDS011;1682;49.286;10.788;2023-07-30T00:49:03;3.97;;;2.90;;
3337;SDS011;1682;49.286;10.788;2023-07-30T00:51:50;3.53;;;3.20;;
3337;SDS011;1682;49.286;10.788;2023-07-30T00:54:38;3.40;;;3.10;;
3337;SDS011;1682;49.286;10.788;2023-07-30T00:57:26;5.40;;;4.23;;
3337;SDS011;1682;49.286;10.788;2023-07-30T01:00:13;16.33;;;4.83;;
3337;SDS011;1682;49.286;10.788;2023-07-30T01:03:02;4.23;;;3.80;;
3337;SDS011;1682;49.286;10.788;2023-07-30T01:05:50;4.30;;;3.50;;
3337;SDS011;1682;49.286;10.788;2023-07-30T01:08:38;6.87;;;4.10;;
3337;SDS011;1682;49.286;10.788;2023-07-30T01:11:26;8.00;;;4.27;;
3337;SDS011;1682;49.286;10.788;2023-07-30T01:14:13;10.43;;;4.43;;
3337;SDS011;1682;49.286;10.788;2023-07-30T01:17:01;7.83;;;4.00;;
3337;SDS011;1682;49.286;10.788;2023-07-30T01:19:50;4.03;;;3.73;;
3337;SDS011;1682;49.286;10.788;2023-07-30T01:22:42;4.47;;;4.17;;
3337;SDS011;1682;49.286;10.788;2023-07-30T01:25:30;6.60;;;4.30;;
3337;SDS011;1682;49.286;10.788;2023-07-30T01:28:19;3.97;;;3.57;;
3337;SDS011;1682;49.286;10.788;2023-07-30T01:31:07;4.07;;;3.53;;
3337;SDS011;1682;49.286;10.788;2023-07-30T01:33:55;8.93;;;4.97;;
3337;SDS011;1682;49.286;10.788;2023-07-30T01:36:43;8.10;;;5.20;;
3337;SDS011;1682;49.286;10.788;2023-07-30T01:39:32;8.77;;;4.83;;
3337;SDS011;1682;49.286;10.788;2023-07-30T01:42:20;8.03;;;4.97;;
3337;SDS011;1682;49.286;10.788;2023-07-30T01:45:07;5.60;;;4.20;;
3337;SDS011;1682;49.286;10.788;2023-07-30T01:47:55;4.00;;;3.50;;
3337;SDS011;1682;49.286;10.788;2023-07-30T01:50:42;7.90;;;3.93;;
3337;SDS011;1682;49.286;10.788;2023-07-30T01:53:32;5.63;;;4.40;;
3337;SDS011;1682;49.286;10.788;2023-07-30T01:56:21;5.00;;;3.80;;
3337;SDS011;1682;49.286;10.788;2023-07-30T01:59:08;8.80;;;5.30;;
3337;SDS011;1682;49.286;10.788;2023-07-30T02:01:56;5.27;;;3.77;;
3337;SDS011;1682;49.286;10.788;2023-07-30T02:04:43;6.40;;;3.83;;
3337;SDS011;1682;49.286;10.788;2023-07-30T02:07:31;4.50;;;4.10;;
3337;SDS011;1682;49.286;10.788;2023-07-30T02:10:18;4.53;;;3.80;;
3337;SDS011;1682;49.286;10.788;2023-07-30T02:13:07;5.10;;;4.60;;
3337;SDS011;1682;49.286;10.788;2023-07-30T02:15:55;5.57;;;4.00;;
3337;SDS011;1682;49.286;10.788;2023-07-30T02:18:42;5.10;;;4.40;;
3337;SDS011;1682;49.286;10.788;2023-07-30T02:21:30;7.03;;;4.27;;
3337;SDS011;1682;49.286;10.788;2023-07-30T02:24:21;3.67;;;3.37;;
3337;SDS011;1682;49.286;10.788;2023-07-30T02:27:08;8.60;;;3.80;;
3337;SDS011;1682;49.286;10.788;2023-07-30T02:29:57;7.13;;;5.13;;
3337;SDS011;1682;49.286;10.788;2023-07-30T02:32:45;5.20;;;4.00;;
3337;SDS011;1682;49.286;10.788;2023-07-30T02:35:32;8.83;;;4.33;;
3337;SDS011;1682;49.286;10.788;2023-07-30T02:38:20;5.43;;;4.53;;
3337;SDS011;1682;49.286;10.788;2023-07-30T02:41:07;7.33;;;3.90;;
3337;SDS011;1682;49.286;10.788;2023-07-30T02:43:55;5.07;;;3.73;;
3337;SDS011;1682;49.286;10.788;2023-07-30T02:46:44;4.17;;;3.80;;
3337;SDS011;1682;49.286;10.788;2023-07-30T02:49:31;6.90;;;4.50;;
3337;SDS011;1682;49.286;10.788;2023-07-30T02:52:18;3.90;;;3.60;;
3337;SDS011;1682;49.286;10.788;2023-07-30T02:55:06;4.77;;;4.30;;
3337;SDS011;1682;49.286;10.788;2023-07-30T02:57:54;4.30;;;3.90;;
3337;SDS011;1682;49.286;10.788;2023-07-30T03:00:41;5.60;;;4.80;;
3337;SDS011;1682;49.286;10.788;2023-07-30T03:03:30;4.40;;;4.00;;
3337;SDS011;1682;49.286;10.788;2023-07-30T03:06:18;4.70;;;4.30;;
3337;SDS011;1682;49.286;10.788;2023-07-30T03:09:05;5.70;;;4.10;;
3337;SDS011;1682;49.286;10.788;2023-07-30T03:11:53;5.27;;;4.77;;
3337;SDS011;1682;49.286;10.788;2023-07-30T03:14:40;4.23;;;3.83;;
3337;SDS011;1682;49.286;10.788;2023-07-30T03:17:27;4.47;;;4.07;;
3337;SDS011;1682;49.286;10.788;2023-07-30T03:20:16;4.93;;;4.43;;
3337;SDS011;1682;49.286;10.788;2023-07-30T03:23:04;6.10;;;3.90;;
3337;SDS011;1682;49.286;10.788;2023-07-30T03:25:51;4.77;;;4.37;;
3337;SDS011;1682;49.286;10.788;2023-07-30T03:28:39;4.63;;;4.23;;
3337;SDS011;1682;49.286;10.788;2023-07-30T03:31:26;7.40;;;5.43;;
3337;SDS011;1682;49.286;10.788;2023-07-30T03:34:14;6.40;;;4.03;;
3337;SDS011;1682;49.286;10.788;2023-07-30T03:37:03;5.17;;;4.67;;
3337;SDS011;1682;49.286;10.788;2023-07-30T03:39:51;5.20;;;4.70;;
3337;SDS011;1682;49.286;10.788;2023-07-30T03:42:38;5.40;;;4.90;;
3337;SDS011;1682;49.286;10.788;2023-07-30T03:45:25;4.97;;;4.47;;
3337;SDS011;1682;49.286;10.788;2023-07-30T03:48:13;5.97;;;4.50;;
3337;SDS011;1682;49.286;10.788;2023-07-30T03:51:00;4.60;;;4.20;;
3337;SDS011;1682;49.286;10.788;2023-07-30T03:53:50;4.87;;;4.43;;
3337;SDS011;1682;49.286;10.788;2023-07-30T03:56:37;5.13;;;4.40;;
3337;SDS011;1682;49.286;10.788;2023-07-30T03:59:25;5.20;;;4.70;;
3337;SDS011;1682;49.286;10.788;2023-07-30T04:02:14;5.60;;;4.57;;
3337;SDS011;1682;49.286;10.788;2023-07-30T04:05:02;4.30;;;3.90;;
3337;SDS011;1682;49.286;10.788;2023-07-30T04:07:49;5.40;;;4.50;;
3337;SDS011;1682;49.286;10.788;2023-07-30T04:10:38;7.03;;;4.33;;
3337;SDS011;1682;49.286;10.788;2023-07-30T04:13:26;5.80;;;4.63;;
3337;SDS011;1682;49.286;10.788;2023-07-30T04:16:13;6.07;;;4.87;;
3337;SDS011;1682;49.286;10.788;2023-07-30T04:19:01;4.30;;;3.90;;
3337;SDS011;1682;49.286;10.788;2023-07-30T04:21:48;4.53;;;4.13;;
3337;SDS011;1682;49.286;10.788;2023-07-30T04:24:35;4.20;;;3.90;;
3337;SDS011;1682;49.286;10.788;2023-07-30T04:27:24;5.17;;;3.73;;
3337;SDS011;1682;49.286;10.788;2023-07-30T04:30:12;4.37;;;3.97;;
3337;SDS011;1682;49.286;10.788;2023-07-30T04:32:59;6.03;;;4.00;;
3337;SDS011;1682;49.286;10.788;2023-07-30T04:35:47;4.20;;;3.80;;
3337;SDS011;1682;49.286;10.788;2023-07-30T04:38:34;4.70;;;4.30;;
3337;SDS011;1682;49.286;10.788;2023-07-30T04:41:22;5.37;;;4.60;;
3337;SDS011;1682;49.286;10.788;2023-07-30T04:44:11;5.83;;;3.63;;
3337;SDS011;1682;49.286;10.788;2023-07-30T04:46:58;4.77;;;4.37;;
3337;SDS011;1682;49.286;10.788;2023-07-30T04:49:46;3.53;;;3.30;;
3337;SDS011;1682;49.286;10.788;2023-07-30T04:52:33;3.67;;;3.30;;
3337;SDS011;1682;49.286;10.788;2023-07-30T04:55:21;3.93;;;3.47;;
3337;SDS011;1682;49.286;10.788;2023-07-30T04:58:08;8.33;;;7.57;;
3337;SDS011;1682;49.286;10.788;2023-07-30T05:00:57;20.27;;;17.80;;
3337;SDS011;1682;49.286;10.788;2023-07-30T05:03:44;6.97;;;6.37;;
3337;SDS011;1682;49.286;10.788;2023-07-30T05:06:32;5.70;;;5.13;;
3337;SDS011;1682;49.286;10.788;2023-07-30T05:09:19;11.33;;;10.33;;
3337;SDS011;1682;49.286;10.788;2023-07-30T05:12:07;7.20;;;6.70;;
3337;SDS011;1682;49.286;10.788;2023-07-30T05:14:55;5.33;;;4.93;;
3337;SDS011;1682;49.286;10.788;2023-07-30T05:17:44;6.90;;;6.30;;
3337;SDS011;1682;49.286;10.788;2023-07-30T05:20:31;7.03;;;6.53;;
3337;SDS011;1682;49.286;10.788;2023-07-30T05:23:19;4.53;;;4.23;;
3337;SDS011;1682;49.286;10.788;2023-07-30T05:26:06;5.63;;;5.30;;
3337;SDS011;1682;49.286;10.788;2023-07-30T05:28:54;7.90;;;7.30;;
3337;SDS011;1682;49.286;10.788;2023-07-30T05:31:41;6.33;;;5.83;;
3337;SDS011;1682;49.286;10.788;2023-07-30T05:34:30;7.97;;;7.27;;
3337;SDS011;1682;49.286;10.788;2023-07-30T05:37:17;12.97;;;11.73;;
3337;SDS011;1682;49.286;10.788;2023-07-30T05:40:06;3.67;;;3.37;;
3337;SDS011;1682;49.286;10.788;2023-07-30T05:42:53;5.77;;;4.40;;
3337;SDS011;1682;49.286;10.788;2023-07-30T05:45:41;5.13;;;4.50;;
3337;SDS011;1682;49.286;10.788;2023-07-30T05:48:28;4.80;;;4.07;;
3337;SDS011;1682;49.286;10.788;2023-07-30T05:51:17;4.40;;;4.03;;
3337;SDS011;1682;49.286;10.788;2023-07-30T05:54:05;5.03;;;4.53;;
3337;SDS011;1682;49.286;10.788;2023-07-30T05:56:52;5.27;;;4.60;;
3337;SDS011;1682;49.286;10.788;2023-07-30T05:59:40;5.93;;;4.67;;
3337;SDS011;1682;49.286;10.788;2023-07-30T06:02:27;4.20;;;3.80;;
3337;SDS011;1682;49.286;10.788;2023-07-30T06:05:15;4.80;;;3.80;;
3337;SDS011;1682;49.286;10.788;2023-07-30T06:08:04;4.20;;;3.83;;
3337;SDS011;1682;49.286;10.788;2023-07-30T06:10:51;4.07;;;3.77;;
3337;SDS011;1682;49.286;10.788;2023-07-30T06:13:39;5.27;;;4.77;;
3337;SDS011;1682;49.286;10.788;2023-07-30T06:16:26;4.17;;;3.87;;
3337;SDS011;1682;49.286;10.788;2023-07-30T06:19:14;4.40;;;4.00;;
3337;SDS011;1682;49.286;10.788;2023-07-30T06:22:02;3.67;;;3.33;;
3337;SDS011;1682;49.286;10.788;2023-07-30T06:24:51;4.30;;;3.90;;
3337;SDS011;1682;49.286;10.788;2023-07-30T06:27:38;5.43;;;3.50;;
3337;SDS011;1682;49.286;10.788;2023-07-30T06:30:26;3.43;;;3.23;;
3337;SDS011;1682;49.286;10.788;2023-07-30T06:33:13;3.90;;;3.60;;
3337;SDS011;1682;49.286;10.788;2023-07-30T06:36:01;3.40;;;3.10;;
3337;SDS011;1682;49.286;10.788;2023-07-30T06:38:48;4.40;;;4.00;;
3337;SDS011;1682;49.286;10.788;2023-07-30T06:41:37;4.80;;;4.50;;
3337;SDS011;1682;49.286;10.788;2023-07-30T06:44:25;4.70;;;3.53;;
3337;SDS011;1682;49.286;10.788;2023-07-30T06:47:12;3.80;;;3.50;;
3337;SDS011;1682;49.286;10.788;2023-07-30T06:50:00;3.73;;;3.43;;
3337;SDS011;1682;49.286;10.788;2023-07-30T06:52:48;9.50;;;4.27;;
3337;SDS011;1682;49.286;10.788;2023-07-30T06:55:35;4.10;;;3.80;;
3337;SDS011;1682;49.286;10.788;2023-07-30T06:58:24;3.50;;;3.30;;
3337;SDS011;1682;49.286;10.788;2023-07-30T07:01:12;4.00;;;3.70;;
3337;SDS011;1682;49.286;10.788;2023-07-30T07:03:59;3.67;;;3.43;;
3337;SDS011;1682;49.286;10.788;2023-07-30T07:06:47;3.30;;;3.10;;
3337;SDS011;1682;49.286;10.788;2023-07-30T07:09:34;3.67;;;3.47;;
3337;SDS011;1682;49.286;10.788;2023-07-30T07:12:22;4.23;;;3.50;;
3337;SDS011;1682;49.286;10.788;2023-07-30T07:15:10;9.17;;;8.27;;
3337;SDS011;1682;49.286;10.788;2023-07-30T07:17:58;4.50;;;4.17;;
3337;SDS011;1682;49.286;10.788;2023-07-30T07:20:46;3.80;;;3.50;;
3337;SDS011;1682;49.286;10.788;2023-07-30T07:23:33;3.77;;;3.47;;
3337;SDS011;1682;49.286;10.788;2023-07-30T07:26:21;3.70;;;3.50;;
3337;SDS011;1682;49.286;10.788;2023-07-30T07:29:09;3.60;;;3.30;;
3337;SDS011;1682;49.286;10.788;2023-07-30T07:31:58;4.27;;;3.90;;
3337;SDS011;1682;49.286;10.788;2023-07-30T07:34:45;4.20;;;3.80;;
3337;SDS011;1682;49.286;10.788;2023-07-30T07:37:33;3.53;;;3.23;;
3337;SDS011;1682;49.286;10.788;2023-07-30T07:40:21;4.50;;;3.80;;
3337;SDS011;1682;49.286;10.788;2023-07-30T07:43:08;4.50;;;4.10;;
3337;SDS011;1682;49.286;10.788;2023-07-30T07:45:56;3.90;;;3.60;;
3337;SDS011;1682;49.286;10.788;2023-07-30T07:48:44;4.20;;;3.60;;
3337;SDS011;1682;49.286;10.788;2023-07-30T07:51:32;3.80;;;3.50;;
3337;SDS011;1682;49.286;10.788;2023-07-30T07:54:20;3.73;;;3.50;;
3337;SDS011;1682;49.286;10.788;2023-07-30T07:57:07;3.37;;;3.17;;
3337;SDS011;1682;49.286;10.788;2023-07-30T07:59:55;4.10;;;3.80;;
3337;SDS011;1682;49.286;10.788;2023-07-30T08:02:42;4.20;;;3.90;;
3337;SDS011;1682;49.286;10.788;2023-07-30T08:05:31;3.80;;;3.50;;
3337;SDS011;1682;49.286;10.788;2023-07-30T08:08:18;4.30;;;3.60;;
3337;SDS011;1682;49.286;10.788;2023-07-30T08:11:06;4.13;;;3.73;;
3337;SDS011;1682;49.286;10.788;2023-07-30T08:13:54;3.70;;;3.40;;
3337;SDS011;1682;49.286;10.788;2023-07-30T08:16:42;3.50;;;3.20;;
3337;SDS011;1682;49.286;10.788;2023-07-30T08:19:30;3.93;;;3.63;;
3337;SDS011;1682;49.286;10.788;2023-07-30T08:22:18;4.50;;;3.37;;
3337;SDS011;1682;49.286;10.788;2023-07-30T08:25:06;9.50;;;3.37;;
3337;SDS011;1682;49.286;10.788;2023-07-30T08:27:54;3.80;;;3.47;;
3337;SDS011;1682;49.286;10.788;2023-07-30T08:30:41;3.50;;;3.30;;
3337;SDS011;1682;49.286;10.788;2023-07-30T08:33:29;2.90;;;2.70;;
3337;SDS011;1682;49.286;10.788;2023-07-30T08:36:17;3.47;;;3.17;;
3337;SDS011;1682;49.286;10.788;2023-07-30T08:39:06;3.10;;;2.97;;
3337;SDS011;1682;49.286;10.788;2023-07-30T08:41:53;3.30;;;3.00;;
3337;SDS011;1682;49.286;10.788;2023-07-30T08:44:41;3.07;;;2.87;;
3337;SDS011;1682;49.286;10.788;2023-07-30T08:47:28;3.13;;;2.93;;
3337;SDS011;1682;49.286;10.788;2023-07-30T08:50:16;3.50;;;3.20;;
3337;SDS011;1682;49.286;10.788;2023-07-30T08:53:03;3.10;;;2.90;;
3337;SDS011;1682;49.286;10.788;2023-07-30T08:55:52;2.30;;;2.20;;
3337;SDS011;1682;49.286;10.788;2023-07-30T08:58:40;2.90;;;2.70;;
3337;SDS011;1682;49.286;10.788;2023-07-30T09:01:29;2.67;;;2.47;;
3337;SDS011;1682;49.286;10.788;2023-07-30T09:04:17;3.10;;;2.90;;
3337;SDS011;1682;49.286;10.788;2023-07-30T09:07:08;3.63;;;2.20;;
3337;SDS011;1682;49.286;10.788;2023-07-30T09:09:55;2.40;;;2.30;;
3337;SDS011;1682;49.286;10.788;2023-07-30T09:12:44;2.13;;;2.03;;
3337;SDS011;1682;49.286;10.788;2023-07-30T09:15:32;2.30;;;2.13;;
3337;SDS011;1682;49.286;10.788;2023-07-30T09:18:20;2.00;;;1.90;;
3337;SDS011;1682;49.286;10.788;2023-07-30T09:21:09;2.30;;;2.20;;
3337;SDS011;1682;49.286;10.788;2023-07-30T09:23:57;6.67;;;3.07;;
3337;SDS011;1682;49.286;10.788;2023-07-30T09:26:50;6.03;;;2.10;;
3337;SDS011;1682;49.286;10.788;2023-07-30T09:29:40;2.30;;;2.20;;
3337;SDS011;1682;49.286;10.788;2023-07-30T09:32:37;1.83;;;1.60;;
3337;SDS011;1682;49.286;10.788;2023-07-30T09:35:25;3.13;;;2.60;;
3337;SDS011;1682;49.286;10.788;2023-07-30T09:38:12;1.73;;;1.63;;
3337;SDS011;1682;49.286;10.788;2023-07-30T09:41:00;3.43;;;2.10;;
3337;SDS011;1682;49.286;10.788;2023-07-30T09:43:48;3.83;;;2.30;;
3337;SDS011;1682;49.286;10.788;2023-07-30T09:46:41;1.77;;;1.63;;
3337;SDS011;1682;49.286;10.788;2023-07-30T09:49:30;2.43;;;2.20;;
3337;SDS011;1682;49.286;10.788;2023-07-30T09:52:18;2.03;;;1.93;;
3337;SDS011;1682;49.286;10.788;2023-07-30T09:55:06;2.63;;;2.43;;
3337;SDS011;1682;49.286;10.788;2023-07-30T09:57:54;1.97;;;1.87;;
3337;SDS011;1682;49.286;10.788;2023-07-30T10:00:41;2.87;;;2.67;;
3337;SDS011;1682;49.286;10.788;2023-07-30T10:03:32;2.10;;;2.00;;
3337;SDS011;1682;49.286;10.788;2023-07-30T10:06:21;2.83;;;2.63;;
3337;SDS011;1682;49.286;10.788;2023-07-30T10:09:10;4.00;;;3.33;;
3337;SDS011;1682;49.286;10.788;2023-07-30T10:11:59;6.03;;;3.73;;
3337;SDS011;1682;49.286;10.788;2023-07-30T10:14:49;4.17;;;3.87;;
3337;SDS011;1682;49.286;10.788;2023-07-30T10:17:36;4.20;;;3.43;;
3337;SDS011;1682;49.286;10.788;2023-07-30T10:20:26;15.33;;;3.47;;
3337;SDS011;1682;49.286;10.788;2023-07-30T10:23:15;4.90;;;2.70;;
3337;SDS011;1682;49.286;10.788;2023-07-30T10:26:08;2.50;;;2.07;;
3337;SDS011;1682;49.286;10.788;2023-07-30T10:29:12;2.90;;;2.70;;
3337;SDS011;1682;49.286;10.788;2023-07-30T10:31:59;2.63;;;2.43;;
3337;SDS011;1682;49.286;10.788;2023-07-30T10:34:47;5.13;;;4.10;;
3337;SDS011;1682;49.286;10.788;2023-07-30T10:37:37;5.97;;;4.97;;
3337;SDS011;1682;49.286;10.788;2023-07-30T10:40:32;5.67;;;5.17;;
3337;SDS011;1682;49.286;10.788;2023-07-30T10:43:20;6.17;;;5.53;;
3337;SDS011;1682;49.286;10.788;2023-07-30T10:46:08;6.40;;;5.80;;
3337;SDS011;1682;49.286;10.788;2023-07-30T10:48:56;3.27;;;3.07;;
3337;SDS011;1682;49.286;10.788;2023-07-30T10:51:43;5.43;;;4.93;;
3337;SDS011;1682;49.286;10.788;2023-07-30T10:54:34;3.83;;;3.53;;
3337;SDS011;1682;49.286;10.788;2023-07-30T10:57:21;6.07;;;5.33;;
3337;SDS011;1682;49.286;10.788;2023-07-30T11:00:09;4.90;;;3.57;;
3337;SDS011;1682;49.286;10.788;2023-07-30T11:02:57;2.90;;;2.70;;
3337;SDS011;1682;49.286;10.788;2023-07-30T11:05:46;2.17;;;2.07;;
3337;SDS011;1682;49.286;10.788;2023-07-30T11:08:35;2.50;;;1.80;;
3337;SDS011;1682;49.286;10.788;2023-07-30T11:11:24;3.50;;;2.63;;
3337;SDS011;1682;49.286;10.788;2023-07-30T11:14:14;2.33;;;2.17;;
3337;SDS011;1682;49.286;10.788;2023-07-30T11:17:02;1.90;;;1.80;;
3337;SDS011;1682;49.286;10.788;2023-07-30T11:19:49;1.70;;;1.60;;
3337;SDS011;1682;49.286;10.788;2023-07-30T11:22:37;2.30;;;1.77;;
3337;SDS011;1682;49.286;10.788;2023-07-30T11:25:24;2.40;;;2.20;;
3337;SDS011;1682;49.286;10.788;2023-07-30T11:28:13;2.20;;;2.10;;
3337;SDS011;1682;49.286;10.788;2023-07-30T11:31:01;4.30;;;2.83;;
3337;SDS011;1682;49.286;10.788;2023-07-30T11:33:49;1.50;;;1.40;;
3337;SDS011;1682;49.286;10.788;2023-07-30T11:36:38;1.90;;;1.80;;
3337;SDS011;1682;49.286;10.788;2023-07-30T11:39:25;1.90;;;1.80;;
3337;SDS011;1682;49.286;10.788;2023-07-30T11:42:13;4.83;;;2.00;;
3337;SDS011;1682;49.286;10.788;2023-07-30T11:47:55;2.90;;;2.00;;
3337;SDS011;1682;49.286;10.788;2023-07-30T11:50:53;2.87;;;2.67;;
3337;SDS011;1682;49.286;10.788;2023-07-30T11:53:44;2.00;;;1.90;;
3337;SDS011;1682;49.286;10.788;2023-07-30T11:56:32;3.53;;;2.67;;
3337;SDS011;1682;49.286;10.788;2023-07-30T11:59:19;2.60;;;2.50;;
3337;SDS011;1682;49.286;10.788;2023-07-30T12:02:08;2.50;;;2.30;;
3337;SDS011;1682;49.286;10.788;2023-07-30T12:04:57;2.10;;;2.00;;
3337;SDS011;1682;49.286;10.788;2023-07-30T12:07:46;2.30;;;2.20;;
3337;SDS011;1682;49.286;10.788;2023-07-30T12:10:41;2.83;;;2.50;;
3337;SDS011;1682;49.286;10.788;2023-07-30T12:13:29;1.97;;;1.87;;
3337;SDS011;1682;49.286;10.788;2023-07-30T12:16:26;2.67;;;2.47;;
3337;SDS011;1682;49.286;10.788;2023-07-30T12:19:14;2.13;;;2.03;;
3337;SDS011;1682;49.286;10.788;2023-07-30T12:22:03;3.20;;;2.43;;
3337;SDS011;1682;49.286;10.788;2023-07-30T12:24:50;1.97;;;1.87;;
3337;SDS011;1682;49.286;10.788;2023-07-30T12:27:38;1.97;;;1.40;;
3337;SDS011;1682;49.286;10.788;2023-07-30T12:30:25;3.05;;;2.20;;
3337;SDS011;1682;49.286;10.788;2023-07-30T12:33:13;1.43;;;1.33;;
3337;SDS011;1682;49.286;10.788;2023-07-30T12:36:01;1.83;;;1.73;;
3337;SDS011;1682;49.286;10.788;2023-07-30T12:38:51;1.70;;;1.60;;
3337;SDS011;1682;49.286;10.788;2023-07-30T12:41:39;2.90;;;2.00;;
3337;SDS011;1682;49.286;10.788;2023-07-30T12:44:26;1.83;;;1.73;;
3337;SDS011;1682;49.286;10.788;2023-07-30T12:47:14;2.03;;;1.85;;
3337;SDS011;1682;49.286;10.788;2023-07-30T12:50:01;1.73;;;1.60;;
3337;SDS011;1682;49.286;10.788;2023-07-30T12:52:49;4.78;;;3.15;;
3337;SDS011;1682;49.286;10.788;2023-07-30T12:55:38;4.85;;;1.30;;
3337;SDS011;1682;49.286;10.788;2023-07-30T15:51:36;2.07;;;1.97;;
3337;SDS011;1682;49.286;10.788;2023-07-30T15:54:33;2.03;;;1.60;;
3337;SDS011;1682;49.286;10.788;2023-07-30T15:57:21;1.47;;;1.37;;
3337;SDS011;1682;49.286;10.788;2023-07-30T16:00:08;3.30;;;2.00;;
3337;SDS011;1682;49.286;10.788;2023-07-30T16:02:59;1.40;;;1.30;;
3337;SDS011;1682;49.286;10.788;2023-07-30T16:05:49;1.57;;;1.47;;
3337;SDS011;1682;49.286;10.788;2023-07-30T16:08:39;1.60;;;1.50;;
3337;SDS011;1682;49.286;10.788;2023-07-30T16:11:26;2.47;;;1.90;;
3337;SDS011;1682;49.286;10.788;2023-07-30T16:14:14;1.73;;;1.50;;
3337;SDS011;1682;49.286;10.788;2023-07-30T16:17:03;1.57;;;1.47;;
3337;SDS011;1682;49.286;10.788;2023-07-30T16:19:51;1.87;;;1.67;;
3337;SDS011;1682;49.286;10.788;2023-07-30T16:22:38;3.17;;;2.97;;
3337;SDS011;1682;49.286;10.788;2023-07-30T16:25:27;2.40;;;1.60;;
3337;SDS011;1682;49.286;10.788;2023-07-30T16:28:15;2.27;;;2.17;;
3337;SDS011;1682;49.286;10.788;2023-07-30T16:31:02;4.17;;;2.80;;
3337;SDS011;1682;49.286;10.788;2023-07-30T16:33:50;1.87;;;1.73;;
3337;SDS011;1682;49.286;10.788;2023-07-30T16:36:37;3.10;;;1.83;;
3337;SDS011;1682;49.286;10.788;2023-07-30T16:39:25;2.83;;;2.40;;
3337;SDS011;1682;49.286;10.788;2023-07-30T16:42:14;2.83;;;2.50;;
3337;SDS011;1682;49.286;10.788;2023-07-30T16:45:01;1.67;;;1.57;;
3337;SDS011;1682;49.286;10.788;2023-07-30T16:47:49;1.77;;;1.67;;
3337;SDS011;1682;49.286;10.788;2023-07-30T16:50:36;2.80;;;2.60;;
3337;SDS011;1682;49.286;10.788;2023-07-30T16:53:24;2.10;;;1.90;;
3337;SDS011;1682;49.286;10.788;2023-07-30T16:56:12;1.90;;;1.80;;
3337;SDS011;1682;49.286;10.788;2023-07-30T16:59:01;1.67;;;1.57;;
3337;SDS011;1682;49.286;10.788;2023-07-30T17:01:51;1.93;;;1.70;;
3337;SDS011;1682;49.286;10.788;2023-07-30T17:04:39;2.23;;;1.67;;
3337;SDS011;1682;49.286;10.788;2023-07-30T17:07:26;2.90;;;1.60;;
3337;SDS011;1682;49.286;10.788;2023-07-30T17:10:14;1.83;;;1.50;;
3337;SDS011;1682;49.286;10.788;2023-07-30T17:13:01;4.73;;;1.93;;
3337;SDS011;1682;49.286;10.788;2023-07-30T17:15:30;2.13;;;1.50;;
3337;SDS011;1682;49.286;10.788;2023-07-30T17:17:58;3.03;;;1.70;;
3337;SDS011;1682;49.286;10.788;2023-07-30T17:20:25;1.53;;;1.43;;
3337;SDS011;1682;49.286;10.788;2023-07-30T17:22:52;2.40;;;1.77;;
3337;SDS011;1682;49.286;10.788;2023-07-30T17:25:19;4.60;;;1.70;;
3337;SDS011;1682;49.286;10.788;2023-07-30T17:27:47;2.57;;;1.70;;
3337;SDS011;1682;49.286;10.788;2023-07-30T17:30:14;3.23;;;1.57;;
3337;SDS011;1682;49.286;10.788;2023-07-30T17:32:42;2.17;;;1.80;;
3337;SDS011;1682;49.286;10.788;2023-07-30T17:35:10;1.93;;;1.80;;
3337;SDS011;1682;49.286;10.788;2023-07-30T17:37:37;2.20;;;1.93;;
3337;SDS011;1682;49.286;10.788;2023-07-30T17:40:06;5.67;;;3.50;;
3337;SDS011;1682;49.286;10.788;2023-07-30T17:42:34;1.90;;;1.67;;
3337;SDS011;1682;49.286;10.788;2023-07-30T17:45:02;1.87;;;1.70;;
3337;SDS011;1682;49.286;10.788;2023-07-30T17:47:29;2.70;;;2.07;;
3337;SDS011;1682;49.286;10.788;2023-07-30T17:49:58;1.50;;;1.40;;
3337;SDS011;1682;49.286;10.788;2023-07-30T17:52:25;6.17;;;2.83;;
3337;SDS011;1682;49.286;10.788;2023-07-30T17:54:52;2.50;;;1.90;;
3337;SDS011;1682;49.286;10.788;2023-07-30T17:57:20;3.33;;;1.97;;
3337;SDS011;1682;49.286;10.788;2023-07-30T17:59:47;3.63;;;1.83;;
3337;SDS011;1682;49.286;10.788;2023-07-30T18:02:14;1.97;;;1.80;;
3337;SDS011;1682;49.286;10.788;2023-07-30T18:04:43;3.33;;;1.93;;
3337;SDS011;1682;49.286;10.788;2023-07-30T18:07:12;2.60;;;1.70;;
3337;SDS011;1682;49.286;10.788;2023-07-30T18:09:39;1.70;;;1.60;;
3337;SDS011;1682;49.286;10.788;2023-07-30T18:12:07;2.30;;;2.00;;
3337;SDS011;1682;49.286;10.788;2023-07-30T18:14:34;3.77;;;2.20;;
3337;SDS011;1682;49.286;10.788;2023-07-30T18:17:01;3.20;;;2.23;;
3337;SDS011;1682;49.286;10.788;2023-07-30T18:19:29;2.50;;;2.03;;
3337;SDS011;1682;49.286;10.788;2023-07-30T18:21:56;2.03;;;1.93;;
3337;SDS011;1682;49.286;10.788;2023-07-30T18:24:24;2.70;;;1.87;;
3337;SDS011;1682;49.286;10.788;2023-07-30T18:26:52;1.60;;;1.50;;
3337;SDS011;1682;49.286;10.788;2023-07-30T18:29:19;2.60;;;1.80;;
3337;SDS011;1682;49.286;10.788;2023-07-30T18:31:46;3.03;;;2.30;;
3337;SDS011;1682;49.286;10.788;2023-07-30T18:34:13;2.50;;;2.30;;
3337;SDS011;1682;49.286;10.788;2023-07-30T18:36:40;2.27;;;2.10;;
3337;SDS011;1682;49.286;10.788;2023-07-30T18:39:08;6.57;;;2.30;;
3337;SDS011;1682;49.286;10.788;2023-07-30T18:41:37;5.83;;;1.80;;
3337;SDS011;1682;49.286;10.788;2023-07-30T18:44:04;2.00;;;1.20;;
3337;SDS011;1682;49.286;10.788;2023-07-30T18:46:31;2.43;;;1.80;;
3337;SDS011;1682;49.286;10.788;2023-07-30T18:48:58;2.57;;;1.87;;
3337;SDS011;1682;49.286;10.788;2023-07-30T18:51:25;2.63;;;1.47;;
3337;SDS011;1682;49.286;10.788;2023-07-30T18:53:52;4.80;;;2.27;;
3337;SDS011;1682;49.286;10.788;2023-07-30T18:56:20;4.27;;;1.93;;
3337;SDS011;1682;49.286;10.788;2023-07-30T18:58:48;3.00;;;1.57;;
3337;SDS011;1682;49.286;10.788;2023-07-30T19:01:15;3.47;;;1.50;;
3337;SDS011;1682;49.286;10.788;2023-07-30T19:03:43;2.40;;;1.60;;
3337;SDS011;1682;49.286;10.788;2023-07-30T19:06:10;5.63;;;2.20;;
3337;SDS011;1682;49.286;10.788;2023-07-30T19:08:37;2.00;;;1.63;;
3337;SDS011;1682;49.286;10.788;2023-07-30T19:11:04;4.07;;;1.70;;
3337;SDS011;1682;49.286;10.788;2023-07-30T19:13:31;2.17;;;1.97;;
3337;SDS011;1682;49.286;10.788;2023-07-30T19:16:00;2.67;;;2.00;;
3337;SDS011;1682;49.286;10.788;2023-07-30T19:18:28;1.77;;;1.67;;
3337;SDS011;1682;49.286;10.788;2023-07-30T19:20:55;1.57;;;1.47;;
3337;SDS011;1682;49.286;10.788;2023-07-30T19:23:22;4.23;;;2.00;;
3337;SDS011;1682;49.286;10.788;2023-07-30T19:25:50;3.43;;;2.00;;
3337;SDS011;1682;49.286;10.788;2023-07-30T19:28:18;3.70;;;2.80;;
3337;SDS011;1682;49.286;10.788;2023-07-30T19:30:45;3.60;;;2.90;;
3337;SDS011;1682;49.286;10.788;2023-07-30T19:33:14;4.53;;;1.90;;
3337;SDS011;1682;49.286;10.788;2023-07-30T19:35:41;3.47;;;3.03;;
3337;SDS011;1682;49.286;10.788;2023-07-30T19:38:08;2.30;;;1.73;;
3337;SDS011;1682;49.286;10.788;2023-07-30T19:40:35;2.40;;;2.13;;
3337;SDS011;1682;49.286;10.788;2023-07-30T19:43:02;2.90;;;2.30;;